This is the latest recevied weather packets stored in our database for station/object N0TKN. If no packets are shown the sender has not sent any weather packets the latest 10 day(s).
| Time | Temp. | Humidity | Pressure | Rain* | Wind** | Luminosity | Snow |
|---|---|---|---|---|---|---|---|
| 1777764919 | 16.11° C | 35% | 1018.5 hPa | 0 mm | - | 58 W/m² | - |
| 1777764315 | 16.67° C | 36% | 1018.6 hPa | 0 mm | - | 62 W/m² | - |
| 1777763716 | 16.67° C | 35% | 1018.6 hPa | 0 mm | - | 80 W/m² | - |
| 1777763116 | 17.22° C | 34% | 1018.4 hPa | 0 mm | - | 158 W/m² | - |
| 1777762515 | 16.67° C | 34% | 1018 hPa | 0 mm | - | 274 W/m² | - |
| 1777761916 | 16.67° C | 35% | 1018 hPa | 0 mm | - | 333 W/m² | - |
| 1777761316 | 16.67° C | 36% | 1018.6 hPa | 0 mm | - | 238 W/m² | - |
| 1777760716 | 17.78° C | 34% | 1017.9 hPa | 0 mm | - | 395 W/m² | - |
| 1777760116 | 17.22° C | 34% | 1017.9 hPa | 0 mm | - | 424 W/m² | - |
| 1777759517 | 16.67° C | 35% | 1018.2 hPa | 0 mm | - | 354 W/m² | - |
| 1777758917 | 17.22° C | 34% | 1018.4 hPa | 0 mm | - | 296 W/m² | - |
| 1777758317 | 17.78° C | 35% | 1017.8 hPa | 0 mm | - | 542 W/m² | - |
| 1777757717 | 17.78° C | 35% | 1017.6 hPa | 0 mm | - | 583 W/m² | - |
| 1777757117 | 17.78° C | 35% | 1017.5 hPa | 0 mm | - | 632 W/m² | - |
| 1777756517 | 17.22° C | 35% | 1018.1 hPa | 0 mm | - | 586 W/m² | - |
| 1777755918 | 17.78° C | 33% | 1017.6 hPa | 0 mm | - | 696 W/m² | - |
| 1777755318 | 17.78° C | 34% | 1017.7 hPa | 0 mm | - | 735 W/m² | - |
| 1777754718 | 17.78° C | 34% | 1017.5 hPa | 0 mm | - | 753 W/m² | - |
| 1777754118 | 17.22° C | 33% | 1018.3 hPa | 0 mm | - | 621 W/m² | - |
| 1777753516 | 16.67° C | 35% | 1017.8 hPa | 0 mm | - | 844 W/m² | - |
| 1777752915 | 17.22° C | 34% | 1018.9 hPa | 0 mm | - | 369 W/m² | - |
| 1777752316 | 17.22° C | 35% | 1018 hPa | 0 mm | - | 933 W/m² | - |
| 1777751716 | 16.67° C | 35% | 1017.5 hPa | 0 mm | - | 948 W/m² | - |
| 1777751116 | 16.67° C | 38% | 1019.4 hPa | 0 mm | - | 331 W/m² | - |
| 1777750516 | 17.22° C | 35% | 1018.4 hPa | 0 mm | - | 620 W/m² | - |
* Rain latest hour (hover to see other rain measurements)
** Current wind speed in m/s (hover to see current wind gust speed)